Time;durP1;ratioP1;P1;durP2;ratioP2;P2;SDS_P1;SDS_P2;PMS_P1;PMS_P2;Temp;Humidity;BMP_temperature;BMP_pressure;BME280_temperature;BME280_humidity;BME280_pressure;Samples;Min_cycle;Max_cycle;Signal;HPM_P1;HPM_P2
2023/03/01 00:01:26;;;;;;;31.03;13.93;;;1.90;99.90;;;;;;5111767;28;20318;-77
2023/03/01 00:03:53;;;;;;;25.73;13.77;;;1.90;99.90;;;;;;5092928;28;20212;-76
2023/03/01 00:06:20;;;;;;;25.00;13.77;;;1.80;99.90;;;;;;5110979;28;20220;-77
2023/03/01 00:08:46;;;;;;;26.40;13.33;;;1.80;99.90;;;;;;5111730;28;20209;-77
2023/03/01 00:11:19;;;;;;;26.40;13.53;;;1.80;99.90;;;;;;5093101;28;20754;-78
2023/03/01 00:13:46;;;;;;;26.23;14.33;;;1.80;99.90;;;;;;5091285;28;20258;-77
2023/03/01 00:16:15;;;;;;;27.17;14.23;;;1.70;99.90;;;;;;5092962;28;20204;-78
2023/03/01 00:18:40;;;;;;;22.47;14.60;;;1.80;99.90;;;;;;5111723;28;20225;-77
2023/03/01 00:21:06;;;;;;;24.10;13.50;;;1.80;99.90;;;;;;5111698;28;20630;-76
2023/03/01 00:23:34;;;;;;;23.87;14.00;;;1.80;99.90;;;;;;5111552;28;20205;-78
2023/03/01 00:25:59;;;;;;;28.63;14.70;;;1.70;99.90;;;;;;5094037;28;20211;-78
2023/03/01 00:28:25;;;;;;;28.03;14.97;;;1.70;99.90;;;;;;5111849;28;20691;-77
2023/03/01 00:30:51;;;;;;;29.43;14.50;;;1.70;99.90;;;;;;5085960;28;20218;-77
2023/03/01 00:33:17;;;;;;;28.37;16.43;;;1.70;99.90;;;;;;5111816;28;20234;-75
2023/03/01 00:35:42;;;;;;;27.63;14.97;;;1.70;99.90;;;;;;5093154;28;20736;-78
2023/03/01 00:38:08;;;;;;;25.57;14.27;;;1.70;99.90;;;;;;5111446;28;20709;-76
2023/03/01 00:40:35;;;;;;;26.20;15.70;;;1.70;99.90;;;;;;5111435;28;20694;-77
2023/03/01 00:43:01;;;;;;;27.23;15.00;;;1.60;99.90;;;;;;5093343;28;20682;-75
2023/03/01 00:45:27;;;;;;;28.87;15.87;;;1.60;99.90;;;;;;5111434;28;20266;-76
2023/03/01 00:47:53;;;;;;;28.20;15.00;;;1.60;99.90;;;;;;5092161;28;20216;-77
2023/03/01 00:50:19;;;;;;;24.80;13.77;;;1.60;99.90;;;;;;5110246;28;20210;-78
2023/03/01 00:52:45;;;;;;;23.93;13.33;;;1.60;99.90;;;;;;5111614;28;20265;-76
2023/03/01 00:55:12;;;;;;;23.40;14.73;;;1.60;99.90;;;;;;5086773;28;20300;-77
2023/03/01 00:57:38;;;;;;;28.27;15.97;;;1.60;99.90;;;;;;5111065;28;20770;-77
2023/03/01 01:00:09;;;;;;;25.77;14.43;;;1.60;99.90;;;;;;5110680;28;20216;-77
2023/03/01 01:02:35;;;;;;;26.00;14.77;;;1.50;99.90;;;;;;5092927;28;20617;-76
2023/03/01 01:05:00;;;;;;;31.23;15.17;;;1.50;99.90;;;;;;5111564;28;20255;-76
2023/03/01 01:07:26;;;;;;;24.83;14.97;;;1.40;99.90;;;;;;5111348;28;20211;-76
2023/03/01 01:09:52;;;;;;;25.70;14.90;;;1.40;99.90;;;;;;5111127;28;20285;-76
2023/03/01 01:12:17;;;;;;;22.97;14.10;;;1.40;99.90;;;;;;5111088;28;20203;-77
2023/03/01 01:14:43;;;;;;;28.90;15.63;;;1.40;99.90;;;;;;5111314;28;20225;-74
2023/03/01 01:17:09;;;;;;;24.73;14.70;;;1.30;99.90;;;;;;5092768;28;20181;-76
2023/03/01 01:19:35;;;;;;;29.93;15.37;;;1.20;99.90;;;;;;5093388;28;20236;-76
2023/03/01 01:22:00;;;;;;;25.33;14.73;;;1.20;99.90;;;;;;5092534;28;20206;-76
2023/03/01 01:24:26;;;;;;;22.10;14.27;;;1.20;99.90;;;;;;5093016;28;20693;-76
2023/03/01 01:26:51;;;;;;;27.03;14.90;;;1.20;99.90;;;;;;5111229;28;20579;-75
2023/03/01 01:29:17;;;;;;;23.30;14.30;;;1.20;99.90;;;;;;5092698;28;20185;-75
2023/03/01 01:31:43;;;;;;;24.43;14.20;;;1.10;99.90;;;;;;5112369;28;20206;-77
2023/03/01 01:34:17;;;;;;;22.23;14.30;;;1.10;99.90;;;;;;5103281;28;20627;-77
2023/03/01 01:36:43;;;;;;;25.43;14.80;;;1.10;99.90;;;;;;5119850;28;20212;-75
2023/03/01 01:39:12;;;;;;;22.43;14.83;;;1.10;99.90;;;;;;5095765;28;20224;-78
2023/03/01 01:41:39;;;;;;;24.10;14.53;;;1.10;99.90;;;;;;5115272;28;20240;-77
2023/03/01 01:44:26;;;;;;;26.80;14.37;;;1.10;99.90;;;;;;5116807;28;20181;-78
2023/03/01 01:47:04;;;;;;;27.73;14.20;;;1.10;99.90;;;;;;5117241;28;20181;-76
2023/03/01 01:49:37;;;;;;;29.03;16.17;;;1.10;99.90;;;;;;5095632;28;20213;-77
2023/03/01 01:52:11;;;;;;;23.07;13.53;;;1.00;99.90;;;;;;5119965;28;20322;-75
2023/03/01 01:54:51;;;;;;;27.67;14.53;;;1.00;99.90;;;;;;5098626;28;20216;-77
2023/03/01 01:57:25;;;;;;;21.80;14.40;;;0.90;99.90;;;;;;5099354;28;20205;-76
2023/03/01 01:59:57;;;;;;;28.10;15.70;;;0.90;99.90;;;;;;5119397;28;20216;-77
2023/03/01 02:02:23;;;;;;;23.73;14.60;;;0.90;99.90;;;;;;5122751;28;20215;-77
2023/03/01 02:04:55;;;;;;;20.53;14.50;;;0.90;99.90;;;;;;5124975;28;20208;-77
2023/03/01 02:07:23;;;;;;;29.30;15.30;;;0.90;99.90;;;;;;5125076;28;20281;-75
2023/03/01 02:09:52;;;;;;;22.40;13.57;;;0.90;99.90;;;;;;5124328;28;20204;-77
2023/03/01 02:12:21;;;;;;;21.47;14.27;;;0.90;99.90;;;;;;5105317;28;20212;-78
2023/03/01 02:14:47;;;;;;;22.20;13.20;;;0.90;99.90;;;;;;5123778;28;20220;-79
2023/03/01 02:17:16;;;;;;;27.63;14.87;;;0.90;99.90;;;;;;5104665;28;20192;-77
2023/03/01 02:20:17;;;;;;;27.37;14.73;;;0.90;99.90;;;;;;5101659;28;20199;-76
2023/03/01 02:22:46;;;;;;;24.83;14.70;;;0.90;99.90;;;;;;5117274;28;20205;-78
2023/03/01 02:25:25;;;;;;;27.77;14.53;;;0.90;99.90;;;;;;5119509;28;20237;-77
2023/03/01 02:28:15;;;;;;;23.23;13.87;;;1.00;99.90;;;;;;5100254;28;20297;-76
2023/03/01 02:33:33;;;;;;;23.53;14.60;;;1.00;99.90;;;;;;5082058;28;20241;-77
2023/03/01 02:36:07;;;;;;;24.10;13.43;;;1.00;99.90;;;;;;5120629;28;20221;-75
2023/03/01 02:38:33;;;;;;;21.80;14.10;;;1.00;99.90;;;;;;5116499;28;20303;-77
2023/03/01 02:41:01;;;;;;;23.37;14.03;;;0.90;99.90;;;;;;5100097;28;20255;-77
2023/03/01 02:43:31;;;;;;;24.63;14.23;;;0.90;99.90;;;;;;5101816;28;20347;-76
2023/03/01 02:46:08;;;;;;;27.03;13.97;;;0.90;99.90;;;;;;5102950;28;20213;-77
2023/03/01 02:48:49;;;;;;;33.17;16.80;;;0.90;99.90;;;;;;5117108;28;20299;-76
2023/03/01 02:51:26;;;;;;;32.83;17.53;;;0.90;99.90;;;;;;5121142;28;20236;-76
2023/03/01 02:54:19;;;;;;;30.60;15.83;;;0.90;99.90;;;;;;5101296;28;20266;-75
2023/03/01 02:56:48;;;;;;;29.47;16.33;;;0.90;99.90;;;;;;5117823;28;20217;-77
2023/03/01 02:59:20;;;;;;;29.27;15.97;;;0.90;99.90;;;;;;5102079;28;20219;-77
2023/03/01 03:01:46;;;;;;;31.07;15.27;;;0.90;99.90;;;;;;5100356;28;20204;-77
2023/03/01 03:04:16;;;;;;;24.90;15.67;;;0.80;99.90;;;;;;5110770;28;20229;-76
2023/03/01 03:06:44;;;;;;;25.30;14.87;;;0.80;99.90;;;;;;5112694;28;20212;-76
2023/03/01 03:09:10;;;;;;;26.73;15.57;;;0.80;99.90;;;;;;5103376;28;20215;-77
2023/03/01 03:11:36;;;;;;;27.67;15.73;;;0.80;99.90;;;;;;5122047;28;20212;-76
2023/03/01 03:14:02;;;;;;;28.90;16.10;;;0.80;99.90;;;;;;5096401;28;20238;-77
2023/03/01 03:16:29;;;;;;;25.50;15.10;;;0.80;99.90;;;;;;5121945;28;20205;-76
2023/03/01 03:19:04;;;;;;;23.97;14.17;;;0.80;99.90;;;;;;5102194;28;20499;-77
2023/03/01 03:21:33;;;;;;;27.13;15.10;;;0.80;99.90;;;;;;5116216;28;20216;-78
2023/03/01 03:23:59;;;;;;;29.07;15.73;;;0.80;99.90;;;;;;5120498;28;20212;-77
2023/03/01 03:26:25;;;;;;;26.83;14.93;;;0.80;99.90;;;;;;5119727;28;20212;-78
2023/03/01 03:28:51;;;;;;;27.73;15.67;;;0.80;99.90;;;;;;5106874;28;20183;-77
2023/03/01 03:31:17;;;;;;;29.03;15.00;;;0.80;99.90;;;;;;5126886;28;20232;-77
2023/03/01 03:33:42;;;;;;;25.60;15.77;;;0.80;99.90;;;;;;5125871;28;20218;-78
2023/03/01 03:36:12;;;;;;;25.37;15.57;;;0.80;99.90;;;;;;5109620;28;20300;-77
2023/03/01 03:38:39;;;;;;;26.70;15.50;;;0.80;99.90;;;;;;5120335;28;20717;-78
2023/03/01 03:41:07;;;;;;;25.70;14.60;;;0.80;99.90;;;;;;5111529;28;20259;-78
2023/03/01 03:43:35;;;;;;;25.10;14.67;;;0.70;99.90;;;;;;5114344;28;20180;-76
2023/03/01 03:46:05;;;;;;;24.00;14.73;;;0.70;99.90;;;;;;5088719;28;20760;-77
2023/03/01 03:48:41;;;;;;;21.07;14.27;;;0.70;99.90;;;;;;5112091;28;20201;-76
2023/03/01 03:51:11;;;;;;;24.70;14.23;;;0.70;99.90;;;;;;5111804;28;20212;-76
2023/03/01 03:53:36;;;;;;;27.77;15.37;;;0.70;99.90;;;;;;5097348;28;20239;-76
2023/03/01 03:56:02;;;;;;;24.60;15.27;;;0.70;99.90;;;;;;5115519;28;20244;-74
2023/03/01 03:58:28;;;;;;;24.93;14.43;;;0.70;99.90;;;;;;5113875;28;20586;-76
2023/03/01 04:00:56;;;;;;;19.20;12.83;;;0.70;99.90;;;;;;5089278;28;20227;-77
2023/03/01 04:03:23;;;;;;;24.07;14.43;;;0.70;99.90;;;;;;5096115;28;20765;-77
2023/03/01 04:05:52;;;;;;;26.00;14.90;;;0.60;99.90;;;;;;5111304;28;20205;-75
2023/03/01 04:08:21;;;;;;;24.10;13.63;;;0.70;99.90;;;;;;5110329;28;20178;-76
2023/03/01 04:10:49;;;;;;;26.43;14.60;;;0.70;99.90;;;;;;5112502;28;20190;-76
2023/03/01 04:13:19;;;;;;;21.80;13.77;;;0.70;99.90;;;;;;5111494;28;20750;-76
2023/03/01 04:15:45;;;;;;;23.10;13.37;;;0.60;99.90;;;;;;5108616;28;20211;-76
2023/03/01 04:18:16;;;;;;;23.43;14.57;;;0.60;99.90;;;;;;5108822;28;20247;-76
2023/03/01 04:20:42;;;;;;;21.27;13.07;;;0.60;99.90;;;;;;5116126;28;20238;-76
2023/03/01 04:23:15;;;;;;;29.63;14.30;;;0.60;99.90;;;;;;5117866;28;20178;-76
2023/03/01 04:25:54;;;;;;;23.20;13.77;;;0.60;99.90;;;;;;5117366;28;20170;-77
2023/03/01 04:28:44;;;;;;;22.83;13.67;;;0.60;99.90;;;;;;5112815;28;20592;-77
2023/03/01 04:31:12;;;;;;;20.73;13.17;;;0.60;99.90;;;;;;5089031;28;20276;-76
2023/03/01 04:33:47;;;;;;;25.60;14.10;;;0.60;99.90;;;;;;5091862;28;20229;-76
2023/03/01 04:36:14;;;;;;;23.97;12.73;;;0.60;99.90;;;;;;5110033;28;20216;-76
2023/03/01 04:38:40;;;;;;;25.07;14.10;;;0.50;99.90;;;;;;5109892;28;20217;-76
2023/03/01 04:41:08;;;;;;;26.47;14.17;;;0.50;99.90;;;;;;5110585;28;20299;-76
2023/03/01 04:43:34;;;;;;;20.30;13.47;;;0.50;99.90;;;;;;5113801;28;20181;-75
2023/03/01 04:46:02;;;;;;;21.03;12.80;;;0.40;99.90;;;;;;5115126;28;20583;-76
2023/03/01 04:48:29;;;;;;;23.57;14.33;;;0.40;99.90;;;;;;5112110;28;20202;-75
2023/03/01 04:50:54;;;;;;;21.97;12.57;;;0.40;99.90;;;;;;5109643;28;20211;-76
2023/03/01 04:53:20;;;;;;;20.80;12.60;;;0.40;99.90;;;;;;5113073;28;20543;-76
2023/03/01 04:55:46;;;;;;;21.70;12.70;;;0.40;99.90;;;;;;5111830;28;20272;-75
2023/03/01 04:58:11;;;;;;;24.20;14.13;;;0.30;99.90;;;;;;5089874;28;20221;-76
2023/03/01 05:00:37;;;;;;;24.43;15.97;;;0.40;99.90;;;;;;5092026;28;20405;-76
2023/03/01 05:03:02;;;;;;;22.30;13.53;;;0.30;99.90;;;;;;5094117;28;20218;-76
2023/03/01 05:05:34;;;;;;;22.37;13.70;;;0.30;99.90;;;;;;5094125;28;20213;-76
2023/03/01 05:08:05;;;;;;;25.47;14.50;;;0.30;99.90;;;;;;5116345;28;20182;-76
2023/03/01 05:10:34;;;;;;;22.37;13.63;;;0.30;99.90;;;;;;5096493;28;20216;-76
2023/03/01 05:13:01;;;;;;;21.80;13.70;;;0.30;99.90;;;;;;5120032;28;20218;-77
2023/03/01 05:15:29;;;;;;;22.43;13.07;;;0.20;99.90;;;;;;5121511;28;20244;-75
2023/03/01 05:17:58;;;;;;;22.47;12.87;;;0.30;99.90;;;;;;5103673;28;20224;-75
2023/03/01 05:20:25;;;;;;;20.10;12.87;;;0.30;99.90;;;;;;5101451;28;20231;-76
2023/03/01 05:22:54;;;;;;;24.73;12.60;;;0.30;99.90;;;;;;5095959;28;20222;-77
2023/03/01 05:25:21;;;;;;;21.13;12.97;;;0.30;99.90;;;;;;5112651;28;20203;-77
2023/03/01 05:27:47;;;;;;;23.23;14.20;;;0.30;99.90;;;;;;5093456;28;20608;-77
2023/03/01 05:30:13;;;;;;;21.23;13.77;;;0.20;99.90;;;;;;5092287;28;20600;-77
2023/03/01 05:32:47;;;;;;;24.03;13.50;;;0.20;99.90;;;;;;5087307;28;20627;-76
2023/03/01 05:35:14;;;;;;;24.57;14.73;;;0.10;99.90;;;;;;5107771;28;20578;-77
2023/03/01 05:37:44;;;;;;;24.97;13.90;;;0.10;99.90;;;;;;5121409;28;20212;-76
2023/03/01 05:40:18;;;;;;;26.97;14.10;;;0.10;99.90;;;;;;5114828;28;20218;-76
2023/03/01 05:42:56;;;;;;;23.07;13.60;;;0.10;99.90;;;;;;5108927;28;20238;-76
2023/03/01 05:45:23;;;;;;;31.93;14.30;;;0.00;99.90;;;;;;5113121;28;20230;-77
2023/03/01 05:47:50;;;;;;;22.33;14.13;;;0.10;99.90;;;;;;5110370;28;20723;-77
2023/03/01 05:50:26;;;;;;;28.30;14.03;;;0.10;99.90;;;;;;5113540;28;20691;-76
2023/03/01 05:53:00;;;;;;;26.00;14.27;;;0.20;99.90;;;;;;5110379;28;20591;-75
2023/03/01 05:55:27;;;;;;;21.67;12.57;;;0.20;99.90;;;;;;5106056;28;20209;-76
2023/03/01 05:57:52;;;;;;;22.03;12.73;;;0.20;99.90;;;;;;5096256;28;20213;-76
2023/03/01 06:00:21;;;;;;;22.57;12.90;;;0.20;99.90;;;;;;5094572;28;20371;-76
2023/03/01 06:02:48;;;;;;;26.40;14.47;;;0.30;99.90;;;;;;5096479;28;20291;-76
2023/03/01 06:05:14;;;;;;;22.43;13.20;;;0.30;99.90;;;;;;5107904;28;20177;-76
2023/03/01 06:07:40;;;;;;;25.57;14.47;;;0.30;99.90;;;;;;5093479;28;20193;-75
2023/03/01 06:10:07;;;;;;;23.03;13.77;;;0.30;99.90;;;;;;5093899;28;20200;-77
2023/03/01 06:12:34;;;;;;;23.13;13.07;;;0.30;99.90;;;;;;5108914;28;20210;-77
2023/03/01 06:15:00;;;;;;;24.10;14.00;;;0.40;99.90;;;;;;5107836;28;20694;-76
2023/03/01 06:17:29;;;;;;;23.00;14.10;;;0.60;99.90;;;;;;5088481;28;20358;-76
2023/03/01 06:19:55;;;;;;;25.33;13.00;;;0.70;99.90;;;;;;5091841;28;20190;-76
2023/03/01 06:22:21;;;;;;;26.33;13.67;;;0.90;99.90;;;;;;5112689;28;20202;-76
2023/03/01 06:24:46;;;;;;;21.50;12.80;;;1.30;99.90;;;;;;5111234;28;20577;-76
2023/03/01 06:27:12;;;;;;;22.90;13.03;;;1.90;99.90;;;;;;5096182;28;20748;-77
2023/03/01 06:29:37;;;;;;;20.07;12.00;;;2.60;99.90;;;;;;5110855;28;20634;-77
2023/03/01 06:32:03;;;;;;;20.70;11.90;;;3.30;99.90;;;;;;5112943;28;21045;-76
2023/03/01 06:34:30;;;;;;;17.27;10.93;;;4.10;99.90;;;;;;5093172;28;20213;-76
2023/03/01 06:36:56;;;;;;;19.60;12.40;;;4.50;99.90;;;;;;5110316;28;20209;-77
2023/03/01 06:39:22;;;;;;;20.30;10.93;;;4.80;99.90;;;;;;5107629;28;20218;-77
2023/03/01 06:41:47;;;;;;;18.63;10.83;;;5.00;99.90;;;;;;5092660;28;20226;-77
2023/03/01 06:44:13;;;;;;;22.73;12.53;;;4.80;99.90;;;;;;5112611;28;20177;-76
2023/03/01 06:46:40;;;;;;;20.00;12.40;;;5.10;99.90;;;;;;5107118;28;20707;-76
2023/03/01 06:49:09;;;;;;;22.90;13.40;;;5.30;99.90;;;;;;5091418;28;20721;-77
2023/03/01 06:51:35;;;;;;;18.83;12.93;;;5.50;99.90;;;;;;5108314;28;20734;-75
2023/03/01 06:54:01;;;;;;;22.00;12.97;;;5.90;99.90;;;;;;5094782;28;20234;-77
2023/03/01 06:56:26;;;;;;;19.73;12.60;;;6.40;99.90;;;;;;5085179;28;20229;-76
2023/03/01 06:58:52;;;;;;;23.67;13.23;;;6.70;99.90;;;;;;5109741;28;20204;-76
2023/03/01 07:01:17;;;;;;;18.23;11.70;;;7.10;99.90;;;;;;5112694;28;20206;-77
2023/03/01 07:03:44;;;;;;;19.90;12.20;;;7.60;99.90;;;;;;5094800;28;20280;-77
2023/03/01 07:06:10;;;;;;;24.03;12.83;;;8.10;99.90;;;;;;5094843;28;20362;-77
2023/03/01 07:08:35;;;;;;;37.07;19.30;;;8.70;99.90;;;;;;5087995;28;20227;-77
2023/03/01 07:11:03;;;;;;;31.63;20.53;;;9.40;99.90;;;;;;5094527;28;20229;-77
2023/03/01 07:13:28;;;;;;;29.57;20.27;;;10.10;99.90;;;;;;5091290;28;20216;-77
2023/03/01 07:15:54;;;;;;;29.77;19.40;;;10.80;99.90;;;;;;5113302;28;20213;-77
2023/03/01 07:18:20;;;;;;;42.92;27.38;;;11.50;99.90;;;;;;5093354;28;20213;-78
2023/03/01 07:20:45;;;;;;;31.20;19.83;;;11.90;99.90;;;;;;5089849;28;20300;-77
2023/03/01 07:23:11;;;;;;;29.25;17.58;;;12.00;99.90;;;;;;5113325;28;20212;-77
2023/03/01 07:25:37;;;;;;;24.50;16.58;;;12.10;99.90;;;;;;5112263;28;20182;-76
2023/03/01 07:28:02;;;;;;;22.17;14.32;;;12.70;99.90;;;;;;5094519;28;20208;-78
2023/03/01 07:30:28;;;;;;;19.95;13.18;;;12.20;99.90;;;;;;5104476;28;20217;-78
2023/03/01 07:32:55;;;;;;;18.65;12.60;;;12.10;99.90;;;;;;5094865;28;20628;-77
2023/03/01 07:35:21;;;;;;;17.05;13.35;;;12.10;99.90;;;;;;5111585;28;20611;-77
2023/03/01 07:37:47;;;;;;;17.02;12.70;;;12.50;99.90;;;;;;5095391;28;20226;-78
2023/03/01 07:40:13;;;;;;;19.83;13.25;;;12.60;99.90;;;;;;5109006;28;20217;-78
2023/03/01 07:42:39;;;;;;;18.85;13.75;;;12.90;99.90;;;;;;5105190;28;20198;-78
2023/03/01 07:45:06;;;;;;;20.30;13.20;;;13.50;99.90;;;;;;5107113;28;20205;-78
2023/03/01 07:47:32;;;;;;;16.52;12.50;;;13.90;99.90;;;;;;5110556;28;20201;-77
2023/03/01 07:49:58;;;;;;;17.52;10.65;;;13.40;99.90;;;;;;5105348;28;20194;-77
2023/03/01 07:52:23;;;;;;;17.25;10.82;;;13.20;99.90;;;;;;5110988;28;20629;-77
2023/03/01 07:54:49;;;;;;;14.10;10.10;;;12.90;99.90;;;;;;5091505;28;20222;-76
2023/03/01 07:57:15;;;;;;;15.30;11.13;;;12.80;99.90;;;;;;5111034;28;20289;-77
2023/03/01 07:59:40;;;;;;;13.80;10.32;;;12.40;99.90;;;;;;5107521;28;20210;-77
2023/03/01 08:02:06;;;;;;;17.88;11.07;;;12.40;99.90;;;;;;5108717;28;20711;-77
2023/03/01 08:04:33;;;;;;;16.13;10.85;;;12.90;99.90;;;;;;5107781;28;20178;-77
2023/03/01 08:06:58;;;;;;;13.88;10.57;;;12.80;99.90;;;;;;5109811;28;20209;-77
2023/03/01 08:09:24;;;;;;;16.13;10.25;;;13.30;99.90;;;;;;5110331;28;20419;-77
2023/03/01 08:11:50;;;;;;;12.30;10.02;;;13.70;99.40;;;;;;5102223;28;20210;-77
2023/03/01 08:14:15;;;;;;;15.25;11.30;;;14.40;97.50;;;;;;5090788;28;20174;-77
2023/03/01 08:16:41;;;;;;;17.77;11.85;;;14.90;97.00;;;;;;5090457;28;20170;-77
2023/03/01 08:19:09;;;;;;;13.98;10.38;;;14.90;96.20;;;;;;5093436;28;20699;-76
2023/03/01 08:21:35;;;;;;;14.52;9.80;;;14.50;95.60;;;;;;5107558;28;20257;-78
2023/03/01 08:24:06;;;;;;;11.73;9.40;;;14.20;95.00;;;;;;5109377;28;20197;-78
2023/03/01 08:26:32;;;;;;;13.18;9.38;;;14.30;95.30;;;;;;5107768;28;20202;-77
2023/03/01 08:29:00;;;;;;;12.10;8.30;;;14.40;94.90;;;;;;5111576;28;20222;-77
2023/03/01 08:31:37;;;;;;;11.23;7.25;;;14.50;94.40;;;;;;5092861;28;20221;-77
2023/03/01 08:34:07;;;;;;;11.40;7.82;;;14.70;93.30;;;;;;5093649;28;20212;-77
2023/03/01 08:36:37;;;;;;;11.40;7.15;;;14.20;93.00;;;;;;5089237;28;20334;-77
2023/03/01 08:39:03;;;;;;;7.63;5.35;;;13.60;93.20;;;;;;5110105;28;20270;-78
2023/03/01 08:41:29;;;;;;;8.93;5.93;;;13.90;93.60;;;;;;5082332;28;20218;-78
2023/03/01 08:43:58;;;;;;;8.07;5.40;;;14.00;93.50;;;;;;5088297;28;20200;-78
2023/03/01 08:46:27;;;;;;;8.65;6.05;;;13.90;92.90;;;;;;5083965;28;20214;-77
2023/03/01 08:48:53;;;;;;;10.05;6.70;;;13.70;93.40;;;;;;5090243;28;20207;-77
2023/03/01 08:51:20;;;;;;;8.77;6.07;;;13.10;93.90;;;;;;5107973;28;20304;-77
2023/03/01 08:53:46;;;;;;;11.25;5.68;;;12.80;94.60;;;;;;5089563;28;20680;-77
2023/03/01 08:56:12;;;;;;;10.52;5.80;;;13.10;95.00;;;;;;5107467;28;20184;-77
2023/03/01 08:58:39;;;;;;;9.65;5.30;;;13.00;94.80;;;;;;5105570;28;20244;-77
2023/03/01 09:01:10;;;;;;;10.60;6.37;;;13.20;95.20;;;;;;5091473;28;20213;-78
2023/03/01 09:03:36;;;;;;;13.57;6.57;;;13.10;95.00;;;;;;5110966;28;20216;-77
2023/03/01 09:06:03;;;;;;;9.60;6.40;;;12.80;95.20;;;;;;5107694;28;20288;-77
2023/03/01 09:08:29;;;;;;;13.17;6.63;;;12.10;96.30;;;;;;5104821;28;20205;-77
2023/03/01 09:10:55;;;;;;;9.40;6.73;;;12.00;96.50;;;;;;5110678;28;20198;-78
2023/03/01 09:13:23;;;;;;;9.47;5.83;;;11.70;96.90;;;;;;5110030;28;20213;-77
2023/03/01 09:15:49;;;;;;;9.13;6.40;;;11.70;97.30;;;;;;5081214;28;20682;-78
2023/03/01 09:18:14;;;;;;;10.13;6.77;;;11.70;97.50;;;;;;5087493;28;20213;-77
2023/03/01 09:20:40;;;;;;;9.87;6.37;;;11.40;97.90;;;;;;5085958;28;20217;-76
2023/03/01 09:23:06;;;;;;;6.93;5.20;;;11.60;98.70;;;;;;5109297;28;20621;-78
2023/03/01 09:25:33;;;;;;;9.37;5.57;;;11.60;97.80;;;;;;5110879;28;20272;-77
2023/03/01 09:27:59;;;;;;;8.70;5.37;;;11.80;97.70;;;;;;5107702;28;20205;-78
2023/03/01 09:30:24;;;;;;;8.27;5.20;;;11.60;97.20;;;;;;5091746;28;20220;-78
2023/03/01 09:32:50;;;;;;;10.00;5.50;;;11.90;97.70;;;;;;5090432;28;20602;-78
2023/03/01 09:35:16;;;;;;;8.63;4.83;;;11.60;97.80;;;;;;5089120;28;20222;-77
2023/03/01 09:37:44;;;;;;;7.13;5.07;;;11.60;97.80;;;;;;5086331;28;20244;-78
2023/03/01 09:40:16;;;;;;;6.33;4.67;;;11.80;97.30;;;;;;5102807;28;20233;-77
2023/03/01 09:43:11;;;;;;;9.23;4.70;;;11.80;96.90;;;;;;5105808;28;20744;-78
2023/03/01 09:45:43;;;;;;;10.43;5.30;;;11.30;97.80;;;;;;5108034;28;20212;-77
2023/03/01 09:48:15;;;;;;;6.73;5.20;;;11.20;98.10;;;;;;5090194;28;20210;-78
2023/03/01 09:50:46;;;;;;;8.70;4.90;;;10.90;98.60;;;;;;5088648;28;20216;-78
2023/03/01 09:53:26;;;;;;;8.00;5.17;;;11.20;98.90;;;;;;5109046;28;20219;-78
2023/03/01 09:56:12;;;;;;;7.57;4.03;;;11.40;98.60;;;;;;5092327;28;20182;-77
2023/03/01 09:59:15;;;;;;;6.40;3.40;;;11.30;97.90;;;;;;5109539;28;20303;-77
2023/03/01 10:02:00;;;;;;;7.13;3.70;;;11.60;97.70;;;;;;5074282;28;20224;-77
2023/03/01 10:04:34;;;;;;;8.17;3.97;;;11.50;97.20;;;;;;5090470;28;20526;-77
2023/03/01 10:07:37;;;;;;;7.43;3.50;;;12.00;97.10;;;;;;5085617;28;20209;-78
2023/03/01 10:10:08;;;;;;;5.90;3.77;;;12.00;96.60;;;;;;5101998;28;20214;-77
2023/03/01 10:12:41;;;;;;;4.83;2.73;;;12.00;95.90;;;;;;5103871;28;20235;-78
2023/03/01 10:15:28;;;;;;;4.47;2.70;;;12.20;95.50;;;;;;5089115;28;20823;-76
2023/03/01 10:18:07;;;;;;;6.43;3.20;;;11.90;95.80;;;;;;5109933;28;20208;-76
2023/03/01 10:20:41;;;;;;;5.17;3.50;;;11.90;96.50;;;;;;5083092;28;20205;-77
2023/03/01 10:23:08;;;;;;;7.53;4.07;;;12.00;96.70;;;;;;5092821;28;20188;-77
2023/03/01 10:25:46;;;;;;;7.33;4.63;;;11.40;96.60;;;;;;5087252;28;20641;-77
2023/03/01 10:28:30;;;;;;;8.83;4.73;;;11.40;97.30;;;;;;5095024;28;20208;-77
2023/03/01 10:30:58;;;;;;;10.13;4.73;;;11.20;98.10;;;;;;5089365;28;20565;-76
2023/03/01 10:33:31;;;;;;;8.10;4.27;;;10.80;97.90;;;;;;5095409;28;20215;-77
2023/03/01 10:35:57;;;;;;;10.73;4.87;;;10.60;97.90;;;;;;5111327;28;20205;-77
2023/03/01 10:38:23;;;;;;;9.97;4.73;;;10.20;99.00;;;;;;5113365;28;20589;-77
2023/03/01 10:41:05;;;;;;;7.67;5.30;;;10.30;99.50;;;;;;5110109;28;20218;-76
2023/03/01 10:43:49;;;;;;;9.43;5.60;;;10.10;99.90;;;;;;5108413;28;20271;-76
2023/03/01 10:46:27;;;;;;;10.93;5.53;;;10.70;99.90;;;;;;5110869;28;20233;-77
2023/03/01 10:49:07;;;;;;;8.40;5.10;;;11.00;99.90;;;;;;5111590;28;20227;-78
2023/03/01 10:51:33;;;;;;;7.87;4.90;;;11.10;99.50;;;;;;5087024;28;20208;-77
2023/03/01 10:53:59;;;;;;;6.60;4.53;;;11.20;99.40;;;;;;5087782;28;20285;-77
2023/03/01 10:56:25;;;;;;;7.50;4.67;;;10.90;97.80;;;;;;5111294;28;20209;-77
2023/03/01 10:59:02;;;;;;;13.87;5.10;;;10.40;98.00;;;;;;5112530;28;20261;-77
2023/03/01 11:01:37;;;;;;;13.30;5.03;;;10.60;98.60;;;;;;5109531;28;20217;-77
2023/03/01 11:04:11;;;;;;;6.63;4.60;;;10.60;98.20;;;;;;5092519;28;20258;-78
2023/03/01 11:06:39;;;;;;;8.03;4.33;;;10.70;98.10;;;;;;5088946;28;20337;-77
2023/03/01 11:09:27;;;;;;;6.10;4.03;;;11.00;97.20;;;;;;5108326;28;20289;-77
2023/03/01 11:11:57;;;;;;;5.53;4.17;;;11.10;96.20;;;;;;5113049;28;20216;-75
2023/03/01 11:14:25;;;;;;;7.67;4.70;;;10.50;95.60;;;;;;5088237;28;20205;-77
2023/03/01 11:17:15;;;;;;;9.03;4.83;;;10.50;97.00;;;;;;5108371;28;20182;-77
2023/03/01 11:19:40;;;;;;;6.50;3.80;;;10.70;96.50;;;;;;5091742;28;20278;-77
2023/03/01 11:22:17;;;;;;;12.00;4.77;;;10.90;96.40;;;;;;5112455;28;20213;-78
2023/03/01 11:24:54;;;;;;;9.07;4.07;;;10.50;96.00;;;;;;5094531;28;20209;-79
2023/03/01 11:27:26;;;;;;;7.90;3.80;;;10.50;96.70;;;;;;5107720;28;20621;-78
2023/03/01 11:30:05;;;;;;;8.73;4.10;;;10.50;96.80;;;;;;5108462;28;20576;-77
2023/03/01 11:32:46;;;;;;;6.37;4.27;;;10.30;96.40;;;;;;5087444;28;20216;-77
2023/03/01 11:35:33;;;;;;;6.83;3.63;;;10.20;96.50;;;;;;5104565;28;20689;-76
2023/03/01 11:37:58;;;;;;;7.90;3.87;;;10.30;96.60;;;;;;5090337;28;20203;-77
2023/03/01 11:40:37;;;;;;;5.57;3.27;;;10.30;96.80;;;;;;5110575;28;20690;-77
2023/03/01 11:43:26;;;;;;;6.63;4.20;;;10.70;96.70;;;;;;5108591;28;20232;-77
2023/03/01 11:46:13;;;;;;;9.33;3.87;;;11.00;96.20;;;;;;5090897;28;20624;-77
2023/03/01 11:48:52;;;;;;;8.30;4.17;;;11.00;95.40;;;;;;5104053;28;20305;-78
2023/03/01 11:51:32;;;;;;;6.20;3.90;;;10.70;95.00;;;;;;5106779;28;20310;-78
2023/03/01 11:54:06;;;;;;;7.27;3.87;;;10.70;95.10;;;;;;5094259;28;20209;-77
2023/03/01 11:56:37;;;;;;;6.70;3.90;;;10.80;94.70;;;;;;5112036;28;20212;-77
2023/03/01 11:59:10;;;;;;;6.00;4.10;;;10.60;94.80;;;;;;5110007;28;20194;-76
2023/03/01 12:01:48;;;;;;;6.03;3.40;;;10.70;94.90;;;;;;5092023;28;20234;-75
2023/03/01 12:04:35;;;;;;;8.23;3.63;;;10.70;93.70;;;;;;5109416;28;20232;-78
2023/03/01 12:07:28;;;;;;;6.97;3.13;;;10.70;94.30;;;;;;5105979;28;20324;-77
2023/03/01 12:10:11;;;;;;;8.30;3.47;;;10.60;93.30;;;;;;5067767;28;20360;-78
2023/03/01 12:12:57;;;;;;;9.13;3.57;;;10.30;92.90;;;;;;5092020;28;20559;-78
2023/03/01 12:15:44;;;;;;;5.70;2.97;;;10.40;93.90;;;;;;5112689;28;20296;-78
2023/03/01 12:18:27;;;;;;;5.73;3.27;;;10.50;93.60;;;;;;5111086;28;20229;-79
2023/03/01 12:20:55;;;;;;;9.27;3.73;;;10.40;93.60;;;;;;5087142;28;20601;-78
2023/03/01 12:23:45;;;;;;;6.13;3.17;;;10.40;93.70;;;;;;5109629;28;20579;-78
2023/03/01 12:26:46;;;;;;;6.67;3.60;;;10.30;93.30;;;;;;5109364;28;20215;-77
2023/03/01 12:29:21;;;;;;;7.93;3.40;;;10.20;93.20;;;;;;5107763;28;20298;-78
2023/03/01 12:31:53;;;;;;;11.27;4.07;;;10.30;93.90;;;;;;5104365;28;20221;-78
2023/03/01 12:34:42;;;;;;;7.57;4.20;;;10.40;93.80;;;;;;5093050;28;20224;-78
2023/03/01 12:37:33;;;;;;;7.30;3.07;;;10.50;93.60;;;;;;5109324;28;20761;-78
2023/03/01 12:40:36;;;;;;;5.73;3.40;;;10.60;93.70;;;;;;5105745;28;20218;-77
2023/03/01 12:43:36;;;;;;;8.10;3.30;;;10.70;92.00;;;;;;5091854;28;20655;-78
2023/03/01 12:46:25;;;;;;;6.47;3.10;;;10.70;91.80;;;;;;5110957;28;20213;-78
2023/03/01 12:49:12;;;;;;;4.63;3.17;;;10.00;90.60;;;;;;5087938;28;20212;-78
2023/03/01 12:51:39;;;;;;;7.70;3.80;;;10.00;90.90;;;;;;5109802;28;20284;-79
2023/03/01 12:54:15;;;;;;;6.20;3.23;;;9.70;91.10;;;;;;5109542;28;20771;-78
2023/03/01 12:56:42;;;;;;;4.77;3.27;;;9.60;91.60;;;;;;5088012;28;20217;-78
2023/03/01 13:00:07;;;;;;;5.07;2.80;;;9.90;91.80;;;;;;5112126;28;20265;-77